createdAt,value
2019-01-21T00:04:54.149Z,49.00
2019-01-21T00:07:21.669Z,49.00
2019-01-21T00:09:49.142Z,48.90
2019-01-21T00:17:22.322Z,48.90
2019-01-21T00:19:46.337Z,48.90
2019-01-21T00:24:41.968Z,48.90
2019-01-21T00:32:04.268Z,48.90
2019-01-21T00:37:03.460Z,48.90
2019-01-21T00:39:28.021Z,48.90
2019-01-21T00:41:55.284Z,48.90
2019-01-21T00:44:22.724Z,49.00
2019-01-21T00:51:44.861Z,49.00
2019-01-21T00:54:12.350Z,49.00
2019-01-21T00:56:39.768Z,49.00
2019-01-21T00:59:07.144Z,49.00
2019-01-21T01:01:34.530Z,49.00
2019-01-21T01:04:02.438Z,49.00
2019-01-21T01:06:29.911Z,49.10
2019-01-21T01:08:57.289Z,49.10
2019-01-21T01:13:52.171Z,49.00
2019-01-21T01:18:46.831Z,49.00
2019-01-21T01:21:14.452Z,49.00
2019-01-21T01:23:41.920Z,49.00
2019-01-21T01:26:09.400Z,49.00
2019-01-21T01:28:36.877Z,49.00
2019-01-21T01:33:31.593Z,49.00
2019-01-21T01:35:58.983Z,49.00
2019-01-21T01:38:26.311Z,49.00
2019-01-21T01:48:16.185Z,49.00
2019-01-21T01:50:43.653Z,49.00
2019-01-21T01:55:38.859Z,49.10
2019-01-21T01:58:06.277Z,49.10
2019-01-21T02:00:34.404Z,49.10
2019-01-21T02:03:01.849Z,49.10
2019-01-21T02:07:56.689Z,49.00
2019-01-21T02:10:24.120Z,48.90
2019-01-21T02:15:18.816Z,48.90
2019-01-21T02:17:52.068Z,48.90
2019-01-21T02:20:15.726Z,49.00
2019-01-21T02:22:45.393Z,48.90
2019-01-21T02:31:20.776Z,48.90
2019-01-21T02:34:29.737Z,48.90
2019-01-21T02:37:32.517Z,48.80
2019-01-21T02:40:56.881Z,48.70
2019-01-21T02:44:01.984Z,48.70
2019-01-21T02:50:10.206Z,48.80
2019-01-21T03:06:10.416Z,48.80
2019-01-21T03:09:34.516Z,48.90
2019-01-21T03:12:57.078Z,48.80
2019-01-21T03:26:48.221Z,49.00
2019-01-21T03:32:34.009Z,49.00
2019-01-21T03:35:28.951Z,49.00
2019-01-21T03:38:50.498Z,49.10
2019-01-21T03:41:32.602Z,49.00
2019-01-21T03:44:40.618Z,49.00
2019-01-21T03:47:24.613Z,49.00
2019-01-21T03:50:42.436Z,49.10
2019-01-21T03:53:46.013Z,49.10
2019-01-21T03:56:23.934Z,49.10
2019-01-21T04:01:50.151Z,49.10
2019-01-21T04:13:02.848Z,49.10
2019-01-21T04:19:07.220Z,49.00
2019-01-21T04:22:07.160Z,49.00
2019-01-21T04:25:14.828Z,49.20
2019-01-21T04:28:12.316Z,49.10
2019-01-21T04:31:31.209Z,50.00
2019-01-21T04:34:29.230Z,49.10
2019-01-21T04:37:34.468Z,49.10
2019-01-21T04:40:34.797Z,49.00
2019-01-21T04:52:04.475Z,49.20
2019-01-21T04:57:44.921Z,49.10
2019-01-21T05:00:38.298Z,49.20
2019-01-21T05:09:32.057Z,49.20
2019-01-21T05:23:17.933Z,49.20
2019-01-21T05:26:05.469Z,49.20
2019-01-21T05:31:52.859Z,49.20
2019-01-21T05:35:26.221Z,49.10
2019-01-21T05:38:29.050Z,49.10
2019-01-21T05:41:36.876Z,49.10
2019-01-21T05:44:55.087Z,49.10
2019-01-21T05:48:28.587Z,49.10
2019-01-21T05:51:37.705Z,49.10
2019-01-21T05:57:20.462Z,49.20
2019-01-21T06:02:52.671Z,49.10
2019-01-21T06:05:47.336Z,49.20
2019-01-21T06:11:39.019Z,49.20
2019-01-21T06:15:10.818Z,49.20
2019-01-21T06:18:15.123Z,49.20
2019-01-21T06:21:29.202Z,49.20
2019-01-21T06:24:25.992Z,49.20
2019-01-21T06:30:37.136Z,49.40
2019-01-21T06:33:28.653Z,49.40
2019-01-21T06:36:02.797Z,49.40
2019-01-21T06:39:27.396Z,49.40
2019-01-21T06:48:03.544Z,49.30
2019-01-21T06:51:11.850Z,49.30
2019-01-21T06:54:19.429Z,49.30
2019-01-21T06:57:22.336Z,49.20
2019-01-21T07:00:27.712Z,49.30
2019-01-21T07:09:02.541Z,49.30
2019-01-21T07:12:02.208Z,49.40
2019-01-21T07:14:59.027Z,49.30
2019-01-21T07:18:13.028Z,49.30
2019-01-21T07:23:53.103Z,49.30
2019-01-21T07:27:02.199Z,49.40
2019-01-21T07:29:56.765Z,49.40
2019-01-21T07:32:53.679Z,49.40
2019-01-21T07:38:48.368Z,49.50
2019-01-21T07:41:41.796Z,49.40
2019-01-21T07:44:31.818Z,49.40
2019-01-21T07:47:50.318Z,49.40
2019-01-21T07:50:55.332Z,49.30
2019-01-21T07:53:40.094Z,49.30
2019-01-21T07:57:13.195Z,49.20
2019-01-21T08:02:53.679Z,49.40
2019-01-21T08:08:11.953Z,49.30
2019-01-21T08:11:17.197Z,49.30
2019-01-21T08:14:32.099Z,49.20
2019-01-21T08:17:33.467Z,49.30
2019-01-21T08:20:30.605Z,49.30
2019-01-21T08:23:24.768Z,49.30
2019-01-21T08:26:49.343Z,49.40
2019-01-21T08:29:47.526Z,49.40
2019-01-21T08:33:15.269Z,49.40
2019-01-21T08:36:14.241Z,49.40
2019-01-21T08:39:25.665Z,49.40
2019-01-21T08:42:40.749Z,49.30
2019-01-21T08:45:47.768Z,49.40
2019-01-21T08:48:46.251Z,49.40
2019-01-21T08:51:53.811Z,49.50
2019-01-21T08:54:31.816Z,49.50
2019-01-21T08:57:42.565Z,49.70
2019-01-21T09:00:32.228Z,49.70
2019-01-21T09:03:41.378Z,49.70
2019-01-21T09:06:32.082Z,49.60
2019-01-21T09:09:23.398Z,49.60
2019-01-21T09:12:28.734Z,49.60
2019-01-21T09:15:23.372Z,49.60
2019-01-21T09:18:49.152Z,49.60
2019-01-21T09:22:07.372Z,49.60
2019-01-21T09:25:00.461Z,49.70
2019-01-21T09:27:44.212Z,49.70
2019-01-21T09:30:43.090Z,49.80
2019-01-21T09:33:44.266Z,49.80
2019-01-21T09:36:41.609Z,49.80
2019-01-21T09:39:50.128Z,49.80
2019-01-21T09:46:01.752Z,49.70
2019-01-21T09:48:28.144Z,49.80
2019-01-21T09:54:37.704Z,49.90
2019-01-21T09:57:06.225Z,49.90
2019-01-21T10:04:43.038Z,49.90
2019-01-21T10:07:38.359Z,49.70
2019-01-21T10:10:32.531Z,49.60
2019-01-21T10:13:36.862Z,49.70
2019-01-21T10:16:37.496Z,49.60
2019-01-21T10:24:18.915Z,49.40
2019-01-21T10:27:24.751Z,49.40
2019-01-21T10:30:38.413Z,49.50
2019-01-21T10:33:34.105Z,49.40
2019-01-21T10:39:26.719Z,49.30
2019-01-21T10:42:44.883Z,49.30
2019-01-21T10:45:50.811Z,49.20
2019-01-21T10:48:54.199Z,49.30
2019-01-21T10:51:52.008Z,49.30
2019-01-21T10:54:55.095Z,49.30
2019-01-21T11:00:19.486Z,49.30
2019-01-21T11:03:25.445Z,49.20
2019-01-21T11:06:31.116Z,49.30
2019-01-21T11:12:12.235Z,49.20
2019-01-21T11:14:58.493Z,49.20
2019-01-21T11:17:47.773Z,49.20
2019-01-21T11:20:58.577Z,49.20
2019-01-21T11:26:37.492Z,49.10
2019-01-21T11:29:14.391Z,49.10
2019-01-21T11:32:14.285Z,49.00
2019-01-21T11:34:56.023Z,49.00
2019-01-21T11:37:52.332Z,49.00
2019-01-21T11:43:38.371Z,49.00
2019-01-21T11:46:46.311Z,49.00
2019-01-21T11:50:10.682Z,48.90
2019-01-21T11:53:07.081Z,48.90
2019-01-21T11:56:15.985Z,48.90
2019-01-21T11:59:20.327Z,48.90
2019-01-21T12:02:43.777Z,48.90
2019-01-21T12:05:29.507Z,48.90
2019-01-21T12:08:24.427Z,48.90
2019-01-21T12:14:18.143Z,48.90
2019-01-21T12:17:27.355Z,48.80
2019-01-21T12:20:29.626Z,48.90
2019-01-21T12:25:50.958Z,48.90
2019-01-21T12:28:26.185Z,48.90
2019-01-21T12:31:50.389Z,48.90
2019-01-21T12:34:40.177Z,48.80
2019-01-21T12:37:39.195Z,48.90
2019-01-21T12:40:35.876Z,48.90
2019-01-21T12:46:35.782Z,48.80
2019-01-21T12:49:21.264Z,48.80
2019-01-21T12:52:01.404Z,48.90
2019-01-21T12:55:19.903Z,48.90
2019-01-21T12:58:12.632Z,48.90
2019-01-21T13:01:34.119Z,48.80
2019-01-21T13:04:32.813Z,48.70
2019-01-21T13:07:49.459Z,48.70
2019-01-21T13:13:34.521Z,48.50
2019-01-21T13:16:55.930Z,48.60
2019-01-21T13:19:52.782Z,48.60
2019-01-21T13:22:51.778Z,48.60
2019-01-21T13:25:52.851Z,48.50
2019-01-21T13:29:03.558Z,48.40
2019-01-21T13:32:27.406Z,48.60
2019-01-21T13:35:49.071Z,48.60
2019-01-21T13:38:39.662Z,48.60
2019-01-21T13:47:21.513Z,48.60
2019-01-21T13:50:20.289Z,48.60
2019-01-21T13:53:44.203Z,48.50
2019-01-21T13:56:33.170Z,48.40
2019-01-21T13:59:47.029Z,48.40
2019-01-21T14:02:24.781Z,48.40
2019-01-21T14:05:21.634Z,48.30
2019-01-21T14:08:14.477Z,48.40
2019-01-21T14:10:58.348Z,48.30
2019-01-21T14:13:58.291Z,48.40
2019-01-21T14:17:19.637Z,48.40
2019-01-21T14:20:07.843Z,48.30
2019-01-21T14:23:09.657Z,48.20
2019-01-21T14:26:20.392Z,48.30
2019-01-21T14:32:18.187Z,48.20
2019-01-21T14:35:36.824Z,48.30
2019-01-21T14:38:42.225Z,48.40
2019-01-21T14:44:49.089Z,48.30
2019-01-21T14:47:47.330Z,48.30
2019-01-21T14:51:15.963Z,48.30
2019-01-21T14:54:27.257Z,48.40
2019-01-21T14:57:38.200Z,48.40
2019-01-21T15:00:53.430Z,48.30
2019-01-21T15:03:59.517Z,48.20
2019-01-21T15:14:56.257Z,48.20
2019-01-21T15:26:03.785Z,48.20
2019-01-21T15:28:51.995Z,48.20
2019-01-21T15:31:45.237Z,48.20
2019-01-21T15:34:32.124Z,48.20
2019-01-21T15:37:22.984Z,48.30
2019-01-21T15:43:21.971Z,48.30
2019-01-21T15:46:31.484Z,48.30
2019-01-21T15:49:11.514Z,48.30
2019-01-21T15:54:21.852Z,48.30
2019-01-21T16:00:16.509Z,48.30
2019-01-21T16:02:57.767Z,48.30
2019-01-21T16:06:01.632Z,48.40
2019-01-21T16:11:44.220Z,48.30
2019-01-21T16:14:36.982Z,48.40
2019-01-21T16:17:17.440Z,48.40
2019-01-21T16:28:36.667Z,48.30
2019-01-21T16:34:20.294Z,48.40
2019-01-21T16:37:23.073Z,48.40
2019-01-21T16:40:35.378Z,48.30
2019-01-21T16:50:24.919Z,48.30
2019-01-21T16:55:19.929Z,48.40
2019-01-21T16:57:47.400Z,48.30
2019-01-21T17:07:37.681Z,48.40
2019-01-21T17:10:06.640Z,48.40
2019-01-21T17:12:35.761Z,48.40
2019-01-21T17:17:32.739Z,48.50
2019-01-21T17:20:00.860Z,48.50
2019-01-21T17:27:23.032Z,48.50
2019-01-21T17:29:50.741Z,48.50
2019-01-21T17:37:15.970Z,48.40
2019-01-21T17:39:43.534Z,48.40
2019-01-21T17:42:10.838Z,48.50
2019-01-21T17:47:05.554Z,48.50
2019-01-21T17:52:00.418Z,48.50
2019-01-21T17:54:27.923Z,48.50
2019-01-21T17:56:55.218Z,48.50
2019-01-21T17:59:22.557Z,48.50
2019-01-21T18:09:12.200Z,48.40
2019-01-21T18:16:36.091Z,48.40
2019-01-21T18:21:30.943Z,48.40
2019-01-21T18:23:58.465Z,48.40
2019-01-21T18:26:25.871Z,48.50
2019-01-21T18:31:23.273Z,48.60
2019-01-21T18:36:18.235Z,48.60
2019-01-21T18:38:45.553Z,48.60
2019-01-21T18:41:13.017Z,48.60
2019-01-21T18:43:40.427Z,48.60
2019-01-21T18:46:09.121Z,48.50
2019-01-21T18:51:03.822Z,48.50
2019-01-21T18:53:31.151Z,48.40
2019-01-21T18:55:58.518Z,48.40
2019-01-21T18:58:26.019Z,48.50
2019-01-21T19:03:21.992Z,48.50
2019-01-21T19:05:52.871Z,48.50
2019-01-21T19:08:20.320Z,48.40
2019-01-21T19:10:47.778Z,48.50
2019-01-21T19:13:15.138Z,48.50
2019-01-21T19:18:09.753Z,48.50
2019-01-21T19:25:31.706Z,48.50
2019-01-21T19:27:59.209Z,48.50
2019-01-21T19:30:27.014Z,48.40
2019-01-21T19:35:25.032Z,48.40
2019-01-21T19:37:52.495Z,48.40
2019-01-21T19:42:47.923Z,48.50
2019-01-21T19:47:42.805Z,48.50
2019-01-21T19:50:12.948Z,48.60
2019-01-21T19:55:33.588Z,48.50
2019-01-21T20:00:28.620Z,48.50
2019-01-21T20:02:56.094Z,48.60
2019-01-21T20:07:50.838Z,48.60
2019-01-21T20:10:18.735Z,48.70
2019-01-21T20:15:14.316Z,48.70
2019-01-21T20:17:41.988Z,48.70
2019-01-21T20:20:12.693Z,48.70
2019-01-21T20:25:08.424Z,48.70
2019-01-21T20:27:37.008Z,48.80
2019-01-21T20:30:06.331Z,48.70
2019-01-21T20:32:58.667Z,48.70
2019-01-21T20:35:26.130Z,48.70
2019-01-21T20:37:54.291Z,48.70
2019-01-21T20:40:24.665Z,48.70
2019-01-21T20:42:57.677Z,48.70
2019-01-21T20:45:25.285Z,48.70
2019-01-21T20:52:48.850Z,48.60
2019-01-21T20:55:18.704Z,48.60
2019-01-21T20:57:46.201Z,48.70
2019-01-21T21:00:16.576Z,48.70
2019-01-21T21:02:44.095Z,48.70
2019-01-21T21:05:11.799Z,48.70
2019-01-21T21:10:07.708Z,48.70
2019-01-21T21:15:07.779Z,48.60
2019-01-21T21:17:35.396Z,48.70
2019-01-21T21:20:05.230Z,48.60
2019-01-21T21:22:32.787Z,48.60
2019-01-21T21:25:00.340Z,48.60
2019-01-21T21:27:28.079Z,48.60
2019-01-21T21:32:23.086Z,48.70
2019-01-21T21:34:50.671Z,48.60
2019-01-21T21:37:18.318Z,48.60
2019-01-21T21:39:46.183Z,48.60
2019-01-21T21:42:14.157Z,48.60
2019-01-21T21:44:41.608Z,48.60
2019-01-21T21:47:29.366Z,48.60
2019-01-21T21:49:57.211Z,48.50
2019-01-21T21:52:27.871Z,48.60
2019-01-21T21:54:55.420Z,48.60
2019-01-21T21:57:24.246Z,48.60
2019-01-21T21:59:51.935Z,48.60
2019-01-21T22:02:25.879Z,48.60
2019-01-21T22:04:55.036Z,48.50
2019-01-21T22:07:22.493Z,48.50
2019-01-21T22:09:50.872Z,48.60
2019-01-21T22:12:22.424Z,48.60
2019-01-21T22:14:53.286Z,48.60
2019-01-21T22:19:52.745Z,48.50
2019-01-21T22:22:39.586Z,48.40
2019-01-21T22:25:09.461Z,48.40
2019-01-21T22:27:38.172Z,48.50
2019-01-21T22:30:11.461Z,48.60
2019-01-21T22:32:39.092Z,48.50
2019-01-21T22:35:20.467Z,48.60
2019-01-21T22:37:48.398Z,48.60
2019-01-21T22:40:18.222Z,48.60
2019-01-21T22:42:47.182Z,48.50
2019-01-21T22:45:17.308Z,48.50
2019-01-21T22:55:10.832Z,48.60
2019-01-21T22:57:38.308Z,48.70
2019-01-21T23:00:28.890Z,48.70
2019-01-21T23:02:56.290Z,48.70
2019-01-21T23:07:51.207Z,48.80
2019-01-21T23:10:18.606Z,48.60
2019-01-21T23:12:46.419Z,48.80
2019-01-21T23:15:13.937Z,48.90
2019-01-21T23:20:08.829Z,49.00
2019-01-21T23:22:36.306Z,49.00
2019-01-21T23:25:04.396Z,49.00
2019-01-21T23:32:26.865Z,49.00
2019-01-21T23:34:54.239Z,49.10
2019-01-21T23:37:21.672Z,49.00
2019-01-21T23:42:16.991Z,49.00
2019-01-21T23:44:44.769Z,49.00
2019-01-21T23:47:12.112Z,49.00
2019-01-21T23:49:39.610Z,49.00
2019-01-21T23:57:04.169Z,49.10
2019-01-21T23:59:31.629Z,49.00
